Foster City, Michigan
Current Conditions -  °F | °C
As of 10:24 AM on Tuesday 21 Oct 2014 (Local Time) from KIMT Reporting Station
Scattered Clouds Scattered Clouds  
Wind Chill: 37°   Ceiling: Unl
Heat Index: 42°   Visibility: 10mi
Dew Point: 31°   Wind: 8mph
Humidity: 65%   Direction: 20°NNE
Pressure: 30.24"   Gusts: NA
Location:  45.96°N, 87.74°W
Report Text: KIMT 211524Z AUTO 02007KT 10SM SCT020 06/M01 A3024 RMK AO2 T00561006
Loading
Personal Weather Stations






























Interactive Weather Map
Tropical Storm Tracking
New forecast layout! Learn more

10-Day Weather Forecast

Advertisements
Track Severe Weather on mobile